Time,TemperatureF,DewpointF,PressureIn,WindDirection,WindDirectionDegrees,WindSpeedMPH,WindSpeedGustMPH,Humidity,HourlyPrecipIn,Conditions,Clouds,dailyrainin,SoftwareType,DateUTC
2013-04-11 00:02:00,51.0,-99.9,-100.00,ENE,75,3.0,5.0,-999,-99.99,,,-99.99,,2013-04-11 06:02:00,
2013-04-11 00:12:00,51.0,-99.9,-100.00,ENE,75,3.0,5.0,-999,-99.99,,,-99.99,,2013-04-11 06:12:00,
2013-04-11 00:22:00,51.0,-99.9,-100.00,ENE,75,3.0,5.0,-999,-99.99,,,-99.99,,2013-04-11 06:22:00,
2013-04-11 02:30:00,43.0,-99.9,-100.00,North,9,1.0,2.0,-999,-99.99,,,-99.99,,2013-04-11 08:30:00,
2013-04-11 02:52:00,45.0,-99.9,-100.00,ENE,61,0.0,3.0,-999,-99.99,,,-99.99,,2013-04-11 08:52:00,
2013-04-11 03:00:00,40.0,-99.9,-100.00,NNE,30,1.0,2.0,-999,-99.99,,,-99.99,,2013-04-11 09:00:00,
2013-04-11 03:02:00,44.0,-99.9,-100.00,NNE,25,1.0,1.0,-999,-99.99,,,-99.99,,2013-04-11 09:02:00,
2013-04-11 03:12:00,44.0,-99.9,-100.00,NNE,25,1.0,1.0,-999,-99.99,,,-99.99,,2013-04-11 09:12:00,
2013-04-11 03:22:00,43.0,-99.9,-100.00,North,9,1.0,2.0,-999,-99.99,,,-99.99,,2013-04-11 09:22:00,
2013-04-11 03:40:00,40.0,-99.9,-100.00,North,358,0.0,2.0,-999,-99.99,,,-99.99,,2013-04-11 09:40:00,
2013-04-11 03:53:00,40.0,-99.9,-100.00,NNE,30,1.0,2.0,-999,-99.99,,,-99.99,,2013-04-11 09:53:00,
2013-04-11 04:23:00,40.0,-99.9,-100.00,North,358,0.0,2.0,-999,-99.99,,,-99.99,,2013-04-11 10:23:00,
2013-04-11 04:32:00,40.0,-99.9,-100.00,North,358,0.0,2.0,-999,-99.99,,,-99.99,,2013-04-11 10:32:00,
2013-04-11 05:32:00,36.0,-99.9,-100.00,WNW,282,0.0,2.0,-999,-99.99,,,-99.99,,2013-04-11 11:32:00,
2013-04-11 05:43:00,36.0,-99.9,-100.00,WNW,282,0.0,2.0,-999,-99.99,,,-99.99,,2013-04-11 11:43:00,
2013-04-11 06:53:00,35.0,-99.9,-100.00,WNW,287,1.0,1.0,-999,-99.99,,,-99.99,,2013-04-11 12:53:00,
2013-04-11 07:03:00,36.0,-99.9,-100.00,NW,308,1.0,1.0,-999,-99.99,,,-99.99,,2013-04-11 13:03:00,
2013-04-11 07:13:00,36.0,-99.9,-100.00,NW,308,1.0,1.0,-999,-99.99,,,-99.99,,2013-04-11 13:13:00,
2013-04-11 07:33:00,36.0,-99.9,-100.00,North,353,0.0,2.0,-999,-99.99,,,-99.99,,2013-04-11 13:33:00,
2013-04-11 07:43:00,36.0,-99.9,-100.00,North,353,0.0,2.0,-999,-99.99,,,-99.99,,2013-04-11 13:43:00,
2013-04-11 07:54:00,36.0,-99.9,-100.00,North,353,0.0,2.0,-999,-99.99,,,-99.99,,2013-04-11 13:54:00,
2013-04-11 08:33:00,52.0,-99.9,-100.00,NE,40,1.0,1.0,-999,-99.99,,,-99.99,,2013-04-11 14:33:00,
2013-04-11 08:43:00,52.0,-99.9,-100.00,NE,40,1.0,1.0,-999,-99.99,,,-99.99,,2013-04-11 14:43:00,
2013-04-11 08:53:00,52.0,-99.9,-100.00,NE,40,1.0,1.0,-999,-99.99,,,-99.99,,2013-04-11 14:53:00,
2013-04-11 12:03:00,73.0,-99.9,-100.00,NE,41,5.0,6.0,-999,-99.99,,,-99.99,,2013-04-11 18:03:00,
2013-04-11 12:13:00,73.0,-99.9,-100.00,NE,41,5.0,6.0,-999,-99.99,,,-99.99,,2013-04-11 18:13:00,
2013-04-11 14:03:00,83.0,-99.9,-100.00,NE,55,3.0,4.0,-999,-99.99,,,-99.99,,2013-04-11 20:03:00,
2013-04-11 14:13:00,83.0,-99.9,-100.00,NE,55,3.0,4.0,-999,-99.99,,,-99.99,,2013-04-11 20:13:00,
2013-04-11 14:22:00,83.0,-99.9,-100.00,NE,55,3.0,4.0,-999,-99.99,,,-99.99,,2013-04-11 20:22:00,
2013-04-11 14:53:00,81.0,-99.9,-100.00,ENE,75,2.0,4.0,-999,-99.99,,,-99.99,,2013-04-11 20:53:00,
2013-04-11 15:03:00,83.0,-99.9,-100.00,East,80,0.0,4.0,-999,-99.99,,,-99.99,,2013-04-11 21:03:00,
2013-04-11 15:13:00,83.0,-99.9,-100.00,East,80,0.0,4.0,-999,-99.99,,,-99.99,,2013-04-11 21:13:00,
2013-04-11 15:23:00,83.0,-99.9,-100.00,East,80,0.0,4.0,-999,-99.99,,,-99.99,,2013-04-11 21:23:00,
2013-04-11 18:02:00,84.0,-99.9,-100.00,NE,45,2.0,3.0,-999,-99.99,,,-99.99,,2013-04-12 00:02:00,
2013-04-11 18:12:00,84.0,-99.9,-100.00,NE,45,2.0,3.0,-999,-99.99,,,-99.99,,2013-04-12 00:12:00,
2013-04-11 19:23:00,69.0,-99.9,-100.00,NNE,15,2.0,4.0,-999,-99.99,,,-99.99,,2013-04-12 01:23:00,
2013-04-11 19:33:00,69.0,-99.9,-100.00,NNE,15,2.0,4.0,-999,-99.99,,,-99.99,,2013-04-12 01:33:00,
2013-04-11 21:40:00,58.0,-99.9,-100.00,South,191,0.0,1.0,-999,-99.99,,,-99.99,,2013-04-12 03:40:00,
2013-04-11 22:00:00,58.0,-99.9,-100.00,North,5,0.0,2.0,-999,-99.99,,,-99.99,,2013-04-12 04:00:00,
2013-04-11 22:23:00,58.0,-99.9,-100.00,South,191,0.0,1.0,-999,-99.99,,,-99.99,,2013-04-12 04:23:00,
2013-04-11 22:33:00,58.0,-99.9,-100.00,South,191,0.0,1.0,-999,-99.99,,,-99.99,,2013-04-12 04:33:00,
2013-04-11 22:53:00,58.0,-99.9,-100.00,North,5,0.0,2.0,-999,-99.99,,,-99.99,,2013-04-12 04:53:00,